createdAt,value
2017-12-19T00:02:02.336Z,14.75
2017-12-19T00:04:30.713Z,18.20
2017-12-19T00:06:58.819Z,16.90
2017-12-19T00:09:27.174Z,18.08
2017-12-19T00:11:56.019Z,17.52
2017-12-19T00:14:24.294Z,15.68
2017-12-19T00:16:52.583Z,16.70
2017-12-19T00:19:20.843Z,27.48
2017-12-19T00:21:49.120Z,16.67
2017-12-19T00:24:17.451Z,15.98
2017-12-19T00:26:45.837Z,17.27
2017-12-19T00:29:14.095Z,16.90
2017-12-19T00:31:42.379Z,19.33
2017-12-19T00:34:10.638Z,15.10
2017-12-19T00:36:38.927Z,18.65
2017-12-19T00:39:07.180Z,17.40
2017-12-19T00:41:36.322Z,19.00
2017-12-19T00:44:04.606Z,16.05
2017-12-19T00:46:32.878Z,17.37
2017-12-19T00:49:01.144Z,18.45
2017-12-19T00:51:29.652Z,17.55
2017-12-19T00:53:57.894Z,16.45
2017-12-19T00:56:26.167Z,21.37
2017-12-19T00:58:54.588Z,18.15
2017-12-19T01:01:22.886Z,19.23
2017-12-19T01:03:51.144Z,22.60
2017-12-19T01:06:19.412Z,18.83
2017-12-19T01:08:47.693Z,18.85
2017-12-19T01:11:15.990Z,16.67
2017-12-19T01:13:44.274Z,15.05
2017-12-19T01:16:12.532Z,19.85
2017-12-19T01:18:40.816Z,17.90
2017-12-19T01:21:09.063Z,17.12
2017-12-19T01:23:38.109Z,20.17
2017-12-19T01:26:06.368Z,15.43
2017-12-19T01:28:34.639Z,16.35
2017-12-19T01:31:02.903Z,19.80
2017-12-19T01:33:31.938Z,16.37
2017-12-19T01:36:00.230Z,15.52
2017-12-19T01:38:28.497Z,16.92
2017-12-19T01:40:56.759Z,18.00
2017-12-19T01:43:25.026Z,17.17
2017-12-19T01:45:53.312Z,18.85
2017-12-19T01:48:21.590Z,19.23
2017-12-19T01:50:49.863Z,16.75
2017-12-19T01:53:18.916Z,17.85
2017-12-19T01:55:47.172Z,19.33
2017-12-19T01:58:15.451Z,19.08
2017-12-19T02:00:43.803Z,18.62
2017-12-19T02:03:12.842Z,22.45
2017-12-19T02:05:41.098Z,18.37
2017-12-19T02:08:09.379Z,20.50
2017-12-19T02:10:37.657Z,22.00
2017-12-19T02:16:30.439Z,19.02
2017-12-19T02:18:58.718Z,19.15
2017-12-19T02:21:26.984Z,19.08
2017-12-19T02:23:56.005Z,21.00
2017-12-19T02:26:25.022Z,20.88
2017-12-19T02:28:53.315Z,24.12
2017-12-19T02:31:21.572Z,20.23
2017-12-19T02:33:49.875Z,22.65
2017-12-19T02:36:18.169Z,19.10
2017-12-19T02:38:47.264Z,20.58
2017-12-19T02:41:16.317Z,20.48
2017-12-19T02:43:44.617Z,21.17
2017-12-19T02:46:12.927Z,22.15
2017-12-19T02:48:41.230Z,20.15
2017-12-19T02:51:10.293Z,22.98
2017-12-19T02:53:38.590Z,20.75
2017-12-19T02:56:07.641Z,19.95
2017-12-19T02:58:35.950Z,22.30
2017-12-19T03:01:04.260Z,27.77
2017-12-19T03:03:33.313Z,19.77
2017-12-19T03:06:01.560Z,22.33
2017-12-19T03:08:29.837Z,22.42
2017-12-19T03:10:58.110Z,23.77
2017-12-19T03:13:26.364Z,24.73
2017-12-19T03:15:54.656Z,25.10
2017-12-19T03:18:22.942Z,20.50
2017-12-19T03:20:51.247Z,23.52
2017-12-19T03:23:19.545Z,24.87
2017-12-19T03:25:47.865Z,23.75
2017-12-19T03:28:16.164Z,25.05
2017-12-19T03:30:44.461Z,25.50
2017-12-19T03:33:12.778Z,27.90
2017-12-19T03:35:41.816Z,24.73
2017-12-19T03:38:10.113Z,26.52
2017-12-19T03:40:38.400Z,29.12
2017-12-19T03:43:06.665Z,23.30
2017-12-19T03:45:34.951Z,23.92
2017-12-19T03:48:03.200Z,23.35
2017-12-19T03:50:31.975Z,26.30
2017-12-19T03:53:00.232Z,27.10
2017-12-19T03:55:28.525Z,28.38
2017-12-19T03:57:56.771Z,27.05
2017-12-19T04:00:25.057Z,25.73
2017-12-19T04:02:53.726Z,26.25
2017-12-19T04:05:21.960Z,26.37
2017-12-19T04:07:50.220Z,27.05
2017-12-19T04:10:18.488Z,28.95
2017-12-19T04:12:46.801Z,26.77
2017-12-19T04:15:15.120Z,25.75
2017-12-19T04:17:44.189Z,25.12
2017-12-19T04:20:12.501Z,22.05
2017-12-19T04:22:40.785Z,21.00
2017-12-19T04:25:09.097Z,24.67
2017-12-19T04:27:38.153Z,21.95
2017-12-19T04:30:06.495Z,18.02
2017-12-19T04:32:35.567Z,21.98
2017-12-19T04:35:03.903Z,24.77
2017-12-19T04:37:32.157Z,20.50
2017-12-19T04:40:01.196Z,21.25
2017-12-19T04:42:29.454Z,20.73
2017-12-19T04:44:57.731Z,20.73
2017-12-19T04:47:25.986Z,23.30
2017-12-19T04:49:55.026Z,21.33
2017-12-19T04:52:23.281Z,18.90
2017-12-19T04:54:51.546Z,20.25
2017-12-19T04:57:19.804Z,19.48
2017-12-19T04:59:50.922Z,23.00
2017-12-19T05:02:19.199Z,21.10
2017-12-19T05:04:47.467Z,23.05
2017-12-19T05:07:15.712Z,23.05
2017-12-19T05:09:44.000Z,21.87
2017-12-19T05:12:13.233Z,24.27
2017-12-19T05:14:41.504Z,24.33
2017-12-19T05:17:09.752Z,23.17
2017-12-19T05:19:38.033Z,24.17
2017-12-19T05:22:06.301Z,24.50
2017-12-19T05:24:34.563Z,23.75
2017-12-19T05:27:02.829Z,27.62
2017-12-19T05:29:33.045Z,25.92
2017-12-19T05:32:01.307Z,26.23
2017-12-19T05:34:30.357Z,23.52
2017-12-19T05:36:58.600Z,24.10
2017-12-19T05:39:26.877Z,28.62
2017-12-19T05:41:55.123Z,25.58
2017-12-19T05:44:24.213Z,24.83
2017-12-19T05:46:52.464Z,24.83
2017-12-19T05:49:20.727Z,24.10
2017-12-19T05:51:49.028Z,25.35
2017-12-19T05:54:18.292Z,23.65
2017-12-19T05:56:46.577Z,23.95
2017-12-19T05:59:14.828Z,29.00
2017-12-19T06:01:43.108Z,26.02
2017-12-19T06:04:11.371Z,28.45
2017-12-19T06:06:40.406Z,27.45
2017-12-19T06:09:08.676Z,24.67
2017-12-19T06:11:36.931Z,27.00
2017-12-19T06:14:05.194Z,23.45
2017-12-19T06:16:34.237Z,28.92
2017-12-19T06:19:04.302Z,25.83
2017-12-19T06:21:33.331Z,28.35
2017-12-19T06:24:01.597Z,28.10
2017-12-19T06:26:29.861Z,25.50
2017-12-19T06:28:58.112Z,27.55
2017-12-19T06:31:27.148Z,25.58
2017-12-19T06:33:55.402Z,28.50
2017-12-19T06:36:24.440Z,28.10
2017-12-19T06:38:52.716Z,30.67
2017-12-19T06:41:21.000Z,29.08
2017-12-19T06:43:49.268Z,27.45
2017-12-19T06:46:18.533Z,25.52
2017-12-19T06:48:46.790Z,25.37
2017-12-19T06:51:15.842Z,27.98
2017-12-19T06:53:44.096Z,24.65
2017-12-19T06:56:12.373Z,24.42
2017-12-19T06:58:40.632Z,26.15
2017-12-19T07:01:08.910Z,23.05
2017-12-19T07:03:37.170Z,23.85
2017-12-19T07:06:06.203Z,25.25
2017-12-19T07:08:34.452Z,24.90
2017-12-19T07:11:02.728Z,24.65
2017-12-19T07:13:31.144Z,23.52
2017-12-19T07:15:59.492Z,24.58
2017-12-19T07:18:27.757Z,21.70
2017-12-19T07:20:56.827Z,28.23
2017-12-19T07:23:25.118Z,23.77
2017-12-19T07:25:53.431Z,24.83
2017-12-19T07:28:21.760Z,32.25
2017-12-19T07:30:50.058Z,28.20
2017-12-19T07:33:19.111Z,23.40
2017-12-19T07:35:47.471Z,28.38
2017-12-19T07:38:15.801Z,23.05
2017-12-19T07:40:44.879Z,26.10
2017-12-19T07:43:13.170Z,23.65
2017-12-19T07:45:41.484Z,23.27
2017-12-19T07:48:09.767Z,24.63
2017-12-19T07:50:38.071Z,21.45
2017-12-19T07:53:06.385Z,20.37
2017-12-19T07:55:35.466Z,26.02
2017-12-19T07:58:03.774Z,22.42
2017-12-19T08:00:32.858Z,24.30
2017-12-19T08:03:02.929Z,22.85
2017-12-19T08:05:31.393Z,24.70
2017-12-19T08:07:59.844Z,22.30
2017-12-19T08:10:28.867Z,21.55
2017-12-19T08:12:57.410Z,27.30
2017-12-19T08:15:25.920Z,23.20
2017-12-19T08:17:54.426Z,24.52
2017-12-19T08:20:23.788Z,23.38
2017-12-19T08:22:53.028Z,25.55
2017-12-19T08:25:21.329Z,24.80
2017-12-19T08:27:49.587Z,26.85
2017-12-19T08:30:17.883Z,21.40
2017-12-19T08:32:46.146Z,25.33
2017-12-19T08:35:15.004Z,24.30
2017-12-19T08:37:43.257Z,20.12
2017-12-19T08:40:11.577Z,23.45
2017-12-19T08:42:39.837Z,24.60
2017-12-19T08:45:08.109Z,22.58
2017-12-19T08:47:36.368Z,21.70
2017-12-19T08:50:05.423Z,24.37
2017-12-19T08:52:33.697Z,22.60
2017-12-19T08:55:01.969Z,24.33
2017-12-19T08:57:30.272Z,23.87
2017-12-19T08:59:59.312Z,23.12
2017-12-19T09:02:27.565Z,22.90
2017-12-19T09:04:56.580Z,27.07
2017-12-19T09:07:24.860Z,24.70
2017-12-19T09:09:53.299Z,25.10
2017-12-19T09:12:21.616Z,25.60
2017-12-19T09:14:50.058Z,27.20
2017-12-19T09:17:19.104Z,25.08
2017-12-19T09:19:47.524Z,24.52
2017-12-19T09:22:16.665Z,23.08
2017-12-19T09:24:45.071Z,23.42
2017-12-19T09:27:13.513Z,25.73
2017-12-19T09:29:41.844Z,24.17
2017-12-19T09:32:10.105Z,24.45
2017-12-19T09:34:38.352Z,23.25
2017-12-19T09:39:41.342Z,23.77
2017-12-19T09:42:09.569Z,24.00
2017-12-19T09:44:37.900Z,22.30
2017-12-19T09:47:06.943Z,25.55
2017-12-19T09:49:35.247Z,26.50
2017-12-19T09:52:03.518Z,22.65
2017-12-19T09:54:32.546Z,22.02
2017-12-19T09:57:00.899Z,24.40
2017-12-19T09:59:29.912Z,23.17
2017-12-19T10:01:58.188Z,29.27
2017-12-19T10:04:26.452Z,23.40
2017-12-19T10:06:55.471Z,25.20
2017-12-19T10:09:23.741Z,22.08
2017-12-19T10:11:52.010Z,22.57
2017-12-19T10:14:21.028Z,23.30
2017-12-19T10:16:49.303Z,23.55
2017-12-19T10:19:17.552Z,19.93
2017-12-19T10:21:45.845Z,24.27
2017-12-19T10:24:14.096Z,19.17
2017-12-19T10:26:43.132Z,23.90
2017-12-19T10:29:11.391Z,26.00
2017-12-19T10:31:40.412Z,20.33
2017-12-19T10:34:08.677Z,30.50
2017-12-19T10:36:36.920Z,26.67
2017-12-19T10:39:05.164Z,24.50
2017-12-19T10:41:33.472Z,22.10
2017-12-19T10:44:02.529Z,23.53
2017-12-19T10:46:30.851Z,26.37
2017-12-19T10:48:59.861Z,24.90
2017-12-19T10:51:28.154Z,27.53
2017-12-19T10:53:56.440Z,25.37
2017-12-19T10:56:24.704Z,25.10
2017-12-19T10:58:52.987Z,30.83
2017-12-19T11:01:21.260Z,27.03
2017-12-19T11:03:50.156Z,26.03
2017-12-19T11:06:18.448Z,25.83
2017-12-19T11:08:46.728Z,27.17
2017-12-19T11:11:15.016Z,23.90
2017-12-19T11:13:43.405Z,23.80
2017-12-19T11:16:11.768Z,24.87
2017-12-19T11:18:40.045Z,23.87
2017-12-19T11:21:08.339Z,23.42
2017-12-19T11:23:36.600Z,25.30
2017-12-19T11:26:04.885Z,22.20
2017-12-19T11:28:33.156Z,23.52
2017-12-19T11:31:02.228Z,20.33
2017-12-19T11:33:30.521Z,24.40
2017-12-19T11:35:58.808Z,25.37
2017-12-19T11:38:27.089Z,20.50
2017-12-19T11:40:56.262Z,22.97
2017-12-19T11:43:24.598Z,24.50
2017-12-19T11:45:53.670Z,21.70
2017-12-19T11:48:22.745Z,23.97
2017-12-19T11:50:51.110Z,30.67
2017-12-19T11:53:19.428Z,24.83
2017-12-19T11:55:48.508Z,25.80
2017-12-19T11:58:16.861Z,31.52
2017-12-19T12:00:45.174Z,25.13
2017-12-19T12:03:14.328Z,26.60
2017-12-19T12:05:42.601Z,25.45
2017-12-19T12:08:10.897Z,26.92
2017-12-19T12:10:39.157Z,29.92
2017-12-19T12:13:07.435Z,23.90
2017-12-19T12:15:35.712Z,22.92
2017-12-19T12:18:03.985Z,24.60
2017-12-19T12:20:32.245Z,28.08
2017-12-19T12:23:00.516Z,29.40
2017-12-19T12:25:28.777Z,29.27
2017-12-19T12:27:57.974Z,26.17
2017-12-19T12:30:26.228Z,26.70
2017-12-19T12:32:55.272Z,25.15
2017-12-19T12:35:23.533Z,22.30
2017-12-19T12:37:51.796Z,23.55
2017-12-19T12:40:20.049Z,23.53
2017-12-19T12:42:48.313Z,19.02
2017-12-19T12:45:16.577Z,22.17
2017-12-19T12:47:44.851Z,18.45
2017-12-19T12:50:13.120Z,16.40
2017-12-19T12:52:41.376Z,15.80
2017-12-19T12:55:09.638Z,18.30
2017-12-19T12:57:37.900Z,16.40
2017-12-19T13:00:06.143Z,19.65
2017-12-19T13:02:34.482Z,18.23
2017-12-19T13:05:02.790Z,18.40
2017-12-19T13:07:31.163Z,17.37
2017-12-19T13:09:59.512Z,17.57
2017-12-19T13:12:28.678Z,17.00
2017-12-19T13:14:57.024Z,21.23
2017-12-19T13:17:25.364Z,20.50
2017-12-19T13:19:53.675Z,19.45
2017-12-19T13:22:22.007Z,20.17
2017-12-19T13:24:50.308Z,18.27
2017-12-19T13:27:18.648Z,16.03
2017-12-19T13:29:47.782Z,13.77
2017-12-19T13:32:16.916Z,16.23
2017-12-19T13:34:45.234Z,13.30
2017-12-19T13:37:13.538Z,13.25
2017-12-19T13:39:41.837Z,13.85
2017-12-19T13:42:10.929Z,13.25
2017-12-19T13:44:39.247Z,14.57
2017-12-19T13:47:07.537Z,11.27
2017-12-19T13:49:35.854Z,12.32
2017-12-19T13:52:04.140Z,12.45
2017-12-19T13:54:32.446Z,10.70
2017-12-19T13:57:01.506Z,12.55
2017-12-19T13:59:29.841Z,13.30
2017-12-19T14:01:58.147Z,12.03
2017-12-19T14:04:26.451Z,12.85
2017-12-19T14:06:54.741Z,12.18
2017-12-19T14:09:23.042Z,12.00
2017-12-19T14:11:52.108Z,12.27
2017-12-19T14:14:20.417Z,12.80
2017-12-19T14:16:49.477Z,13.95
2017-12-19T14:19:17.744Z,17.20
2017-12-19T14:21:46.002Z,15.07
2017-12-19T14:24:14.279Z,13.10
2017-12-19T14:26:42.531Z,17.55
2017-12-19T14:29:10.880Z,15.53
2017-12-19T14:31:39.273Z,17.48
2017-12-19T14:34:08.305Z,20.15
2017-12-19T14:36:36.609Z,16.45
2017-12-19T14:39:05.720Z,14.82
2017-12-19T14:41:34.816Z,17.65
2017-12-19T14:44:03.905Z,17.10
2017-12-19T14:46:32.191Z,16.92
2017-12-19T14:49:00.476Z,17.20
2017-12-19T14:51:28.845Z,17.55
2017-12-19T14:53:57.127Z,15.60
2017-12-19T14:56:26.220Z,17.55
2017-12-19T14:58:55.299Z,17.10
2017-12-19T15:01:24.435Z,17.45
2017-12-19T15:03:52.713Z,15.35
2017-12-19T15:06:20.990Z,16.23
2017-12-19T15:08:49.473Z,17.10
2017-12-19T15:11:17.763Z,17.27
2017-12-19T15:13:46.012Z,14.75
2017-12-19T15:16:15.051Z,15.50
2017-12-19T15:18:43.301Z,14.90
2017-12-19T15:21:11.573Z,14.38
2017-12-19T15:23:39.816Z,12.10
2017-12-19T15:26:08.088Z,11.18
2017-12-19T15:28:36.336Z,12.18
2017-12-19T15:31:04.605Z,11.32
2017-12-19T15:33:32.872Z,11.00
2017-12-19T15:36:01.149Z,10.98
2017-12-19T15:38:29.404Z,10.35
2017-12-19T15:40:57.685Z,12.27
2017-12-19T15:43:25.960Z,9.40
2017-12-19T15:45:54.207Z,11.60
2017-12-19T15:48:23.119Z,12.60
2017-12-19T15:50:51.400Z,13.15
2017-12-19T15:53:19.656Z,11.52
2017-12-19T15:55:48.673Z,14.10
2017-12-19T15:58:16.940Z,12.90
2017-12-19T16:00:45.965Z,14.63
2017-12-19T16:03:14.227Z,15.65
2017-12-19T16:05:42.508Z,12.63
2017-12-19T16:08:10.795Z,15.15
2017-12-19T16:10:39.046Z,17.27
2017-12-19T16:13:07.318Z,17.65
2017-12-19T16:15:36.356Z,16.35
2017-12-19T16:18:04.637Z,18.98
2017-12-19T16:23:14.341Z,18.75
2017-12-19T16:25:43.395Z,18.25
2017-12-19T16:28:11.720Z,16.25
2017-12-19T16:30:40.772Z,17.75
2017-12-19T16:33:10.065Z,19.98
2017-12-19T16:35:38.403Z,21.17
2017-12-19T16:38:08.482Z,18.52
2017-12-19T16:40:36.765Z,19.60
2017-12-19T16:43:05.093Z,19.10
2017-12-19T16:45:33.386Z,18.92
2017-12-19T16:48:01.739Z,18.60
2017-12-19T16:50:30.058Z,16.15
2017-12-19T16:52:58.381Z,22.70
2017-12-19T16:55:27.420Z,21.67
2017-12-19T16:57:55.721Z,21.75
2017-12-19T17:00:24.017Z,19.27
2017-12-19T17:02:52.354Z,18.40
2017-12-19T17:05:20.637Z,17.83
2017-12-19T17:07:48.967Z,16.48
2017-12-19T17:10:17.250Z,14.32
2017-12-19T17:12:45.545Z,16.10
2017-12-19T17:15:13.848Z,14.60
2017-12-19T17:17:42.186Z,14.68
2017-12-19T17:20:10.501Z,16.67
2017-12-19T17:22:38.803Z,20.02
2017-12-19T17:25:07.078Z,13.85
2017-12-19T17:27:35.380Z,14.40
2017-12-19T17:30:04.423Z,16.42
2017-12-19T17:32:32.722Z,15.82
2017-12-19T17:35:01.009Z,17.60
2017-12-19T17:37:30.071Z,12.40
2017-12-19T17:39:58.393Z,14.57
2017-12-19T17:42:26.676Z,15.50
2017-12-19T17:44:55.748Z,14.03
2017-12-19T17:47:24.046Z,15.50
2017-12-19T17:49:53.160Z,12.73
2017-12-19T17:52:22.204Z,13.30
2017-12-19T17:54:50.547Z,18.45
2017-12-19T17:57:18.843Z,15.07
2017-12-19T17:59:47.157Z,17.37
2017-12-19T18:02:16.214Z,14.98
2017-12-19T18:04:44.538Z,15.13
2017-12-19T18:07:13.580Z,19.57
2017-12-19T18:09:41.919Z,19.42
2017-12-19T18:12:10.221Z,19.70
2017-12-19T18:14:38.526Z,18.77
2017-12-19T18:17:08.871Z,20.50
2017-12-19T18:19:37.187Z,19.20
2017-12-19T18:22:05.524Z,22.77
2017-12-19T18:24:33.834Z,22.48
2017-12-19T18:27:02.146Z,22.02
2017-12-19T18:29:30.458Z,19.90
2017-12-19T18:31:58.751Z,22.58
2017-12-19T18:34:27.831Z,21.95
2017-12-19T18:36:56.179Z,19.52
2017-12-19T18:39:24.487Z,22.65
2017-12-19T18:41:52.822Z,22.40
2017-12-19T18:44:21.140Z,22.60
2017-12-19T18:46:49.430Z,23.38
2017-12-19T18:49:17.764Z,23.70
2017-12-19T18:51:46.066Z,27.23
2017-12-19T18:54:14.381Z,26.20
2017-12-19T18:56:42.692Z,28.55
2017-12-19T18:59:10.992Z,31.03
2017-12-19T19:01:40.102Z,28.05
2017-12-19T19:04:08.401Z,26.10
2017-12-19T19:06:37.459Z,26.77
2017-12-19T19:09:05.781Z,30.93
2017-12-19T19:11:34.845Z,31.30
2017-12-19T19:14:03.176Z,30.92
2017-12-19T19:16:31.444Z,27.05
2017-12-19T19:18:59.716Z,29.95
2017-12-19T19:21:27.985Z,29.83
2017-12-19T19:23:56.252Z,33.33
2017-12-19T19:26:24.512Z,28.50
2017-12-19T19:28:52.781Z,35.00
2017-12-19T19:31:21.044Z,28.93
2017-12-19T19:33:49.304Z,26.47
2017-12-19T19:36:17.564Z,30.40
2017-12-19T19:38:46.998Z,28.47
2017-12-19T19:41:15.268Z,28.17
2017-12-19T19:43:43.598Z,27.98
2017-12-19T19:46:16.668Z,29.60
2017-12-19T19:48:45.770Z,26.73
2017-12-19T19:51:14.953Z,28.53
2017-12-19T19:53:43.272Z,26.67
2017-12-19T19:56:12.283Z,30.37
2017-12-19T19:58:41.609Z,27.17
2017-12-19T20:01:09.888Z,25.77
2017-12-19T20:03:38.171Z,21.75
2017-12-19T20:06:06.439Z,23.97
2017-12-19T20:08:34.728Z,21.83
2017-12-19T20:11:03.003Z,23.17
2017-12-19T20:13:31.282Z,20.87
2017-12-19T20:15:59.554Z,23.50
2017-12-19T20:18:27.843Z,23.73
2017-12-19T20:20:57.122Z,25.45
2017-12-19T20:23:25.420Z,25.40
2017-12-19T20:25:53.704Z,22.53
2017-12-19T20:28:22.292Z,23.07
2017-12-19T20:30:50.578Z,25.30
2017-12-19T20:33:19.663Z,21.10
2017-12-19T20:35:48.742Z,19.87
2017-12-19T20:38:17.025Z,25.10
2017-12-19T20:40:45.356Z,25.80
2017-12-19T20:43:13.681Z,20.27
2017-12-19T20:45:41.999Z,21.00
2017-12-19T20:48:10.289Z,20.10
2017-12-19T20:50:38.616Z,21.20
2017-12-19T20:53:06.941Z,19.87
2017-12-19T20:55:35.262Z,21.67
2017-12-19T20:58:03.565Z,19.67
2017-12-19T21:00:32.617Z,23.97
2017-12-19T21:03:00.918Z,22.03
2017-12-19T21:05:29.230Z,20.37
2017-12-19T21:07:57.524Z,20.17
2017-12-19T21:10:25.837Z,18.17
2017-12-19T21:12:54.116Z,23.70
2017-12-19T21:15:22.441Z,20.03
2017-12-19T21:17:50.754Z,18.87
2017-12-19T21:20:19.067Z,23.63
2017-12-19T21:22:47.350Z,23.07
2017-12-19T21:25:15.708Z,20.40
2017-12-19T21:27:44.073Z,25.60
2017-12-19T21:30:12.388Z,21.40
2017-12-19T21:32:42.480Z,21.60
2017-12-19T21:35:10.802Z,23.73
2017-12-19T21:37:39.106Z,19.40
2017-12-19T21:40:08.786Z,18.87
2017-12-19T21:42:37.873Z,20.15
2017-12-19T21:45:06.938Z,22.93
2017-12-19T21:47:35.992Z,26.15
2017-12-19T21:50:04.260Z,22.73
2017-12-19T21:52:32.558Z,20.85
2017-12-19T21:55:00.823Z,22.53
2017-12-19T21:57:29.100Z,19.77
2017-12-19T21:59:57.366Z,19.52
2017-12-19T22:02:25.653Z,18.10
2017-12-19T22:04:53.916Z,23.27
2017-12-19T22:07:22.208Z,22.70
2017-12-19T22:09:50.469Z,20.98
2017-12-19T22:12:18.744Z,18.17
2017-12-19T22:14:47.021Z,20.12
2017-12-19T22:17:15.330Z,17.75
2017-12-19T22:19:43.589Z,17.58
2017-12-19T22:22:11.836Z,19.25
2017-12-19T22:24:40.116Z,17.47
2017-12-19T22:27:08.377Z,17.00
2017-12-19T22:29:37.436Z,15.45
2017-12-19T22:32:05.691Z,20.07
2017-12-19T22:34:33.956Z,16.73
2017-12-19T22:37:02.214Z,18.98
2017-12-19T22:39:30.506Z,17.98
2017-12-19T22:41:58.768Z,20.67
2017-12-19T22:44:27.057Z,19.48
2017-12-19T22:46:55.317Z,17.95
2017-12-19T22:49:24.353Z,21.80
2017-12-19T22:51:52.615Z,18.73
2017-12-19T22:54:20.907Z,18.48
2017-12-19T22:56:49.167Z,18.10
2017-12-19T22:59:17.445Z,19.00
2017-12-19T23:01:45.730Z,17.27
2017-12-19T23:04:14.033Z,18.00
2017-12-19T23:06:42.320Z,19.65
2017-12-19T23:09:10.573Z,24.17
2017-12-19T23:11:38.846Z,22.00
2017-12-19T23:14:07.099Z,20.53
2017-12-19T23:16:35.401Z,24.23
2017-12-19T23:19:03.682Z,20.37
2017-12-19T23:21:31.958Z,15.52
2017-12-19T23:24:00.246Z,17.80
2017-12-19T23:26:28.489Z,21.35
2017-12-19T23:28:56.744Z,16.73
2017-12-19T23:31:25.030Z,20.60
2017-12-19T23:33:53.277Z,14.73
2017-12-19T23:36:22.332Z,19.67
2017-12-19T23:38:50.595Z,20.65
2017-12-19T23:41:18.877Z,17.52
2017-12-19T23:43:47.126Z,17.43
2017-12-19T23:46:15.408Z,18.70
2017-12-19T23:48:43.644Z,19.42
2017-12-19T23:51:11.926Z,18.90
2017-12-19T23:53:40.165Z,16.70
2017-12-19T23:56:08.445Z,15.40
2017-12-19T23:58:36.711Z,19.73
